sensor_id;sensor_type;location;lat;lon;timestamp;pressure;altitude;pressure_sealevel;temperature;humidity
63916;BME280;50094;51.356;-0.196;2022-12-05T00:01:16;101126.27;;;23.20;40.91
63916;BME280;50094;51.356;-0.196;2022-12-05T00:03:44;101125.77;;;23.29;41.30
63916;BME280;50094;51.356;-0.196;2022-12-05T00:06:11;101127.76;;;23.02;41.66
63916;BME280;50094;51.356;-0.196;2022-12-05T00:08:39;101129.30;;;22.95;41.37
63916;BME280;50094;51.356;-0.196;2022-12-05T00:11:11;101129.00;;;23.19;41.47
63916;BME280;50094;51.356;-0.196;2022-12-05T00:13:39;101130.45;;;23.15;41.51
63916;BME280;50094;51.356;-0.196;2022-12-05T00:16:09;101128.83;;;23.21;41.31
63916;BME280;50094;51.356;-0.196;2022-12-05T00:18:37;101128.09;;;23.14;41.50
63916;BME280;50094;51.356;-0.196;2022-12-05T00:21:05;101128.00;;;23.13;41.58
63916;BME280;50094;51.356;-0.196;2022-12-05T00:23:33;101125.80;;;23.09;41.55
63916;BME280;50094;51.356;-0.196;2022-12-05T00:26:01;101130.01;;;23.10;41.63
63916;BME280;50094;51.356;-0.196;2022-12-05T00:28:30;101125.89;;;23.11;41.71
63916;BME280;50094;51.356;-0.196;2022-12-05T00:31:01;101129.20;;;22.82;41.78
63916;BME280;50094;51.356;-0.196;2022-12-05T00:33:29;101129.02;;;23.13;41.78
63916;BME280;50094;51.356;-0.196;2022-12-05T00:36:01;101129.64;;;22.94;41.86
63916;BME280;50094;51.356;-0.196;2022-12-05T00:38:29;101128.38;;;23.34;41.79
63916;BME280;50094;51.356;-0.196;2022-12-05T00:41:01;101128.30;;;23.37;41.56
63916;BME280;50094;51.356;-0.196;2022-12-05T00:43:29;101128.93;;;23.05;42.18
63916;BME280;50094;51.356;-0.196;2022-12-05T00:46:00;101129.36;;;23.11;41.80
63916;BME280;50094;51.356;-0.196;2022-12-05T00:48:28;101124.36;;;23.35;41.82
63916;BME280;50094;51.356;-0.196;2022-12-05T00:51:00;101122.44;;;22.84;42.07
63916;BME280;50094;51.356;-0.196;2022-12-05T00:53:28;101119.74;;;22.84;41.94
63916;BME280;50094;51.356;-0.196;2022-12-05T00:55:55;101121.07;;;23.06;42.38
63916;BME280;50094;51.356;-0.196;2022-12-05T00:58:23;101117.27;;;23.34;41.78
63916;BME280;50094;51.356;-0.196;2022-12-05T01:00:51;101116.68;;;23.10;42.08
63916;BME280;50094;51.356;-0.196;2022-12-05T01:03:18;101115.91;;;23.19;42.10
63916;BME280;50094;51.356;-0.196;2022-12-05T01:05:46;101118.42;;;22.90;42.17
63916;BME280;50094;51.356;-0.196;2022-12-05T01:08:13;101121.47;;;23.38;42.17
63916;BME280;50094;51.356;-0.196;2022-12-05T01:10:40;101122.98;;;22.96;41.93
63916;BME280;50094;51.356;-0.196;2022-12-05T01:13:07;101122.22;;;23.23;41.99
63916;BME280;50094;51.356;-0.196;2022-12-05T01:15:36;101123.17;;;23.24;41.91
63916;BME280;50094;51.356;-0.196;2022-12-05T01:18:03;101120.27;;;23.04;41.72
63916;BME280;50094;51.356;-0.196;2022-12-05T01:20:30;101122.95;;;23.43;41.86
63916;BME280;50094;51.356;-0.196;2022-12-05T01:22:58;101124.85;;;22.95;41.65
63916;BME280;50094;51.356;-0.196;2022-12-05T01:25:26;101118.49;;;23.50;41.71
63916;BME280;50094;51.356;-0.196;2022-12-05T01:27:54;101127.42;;;23.33;41.61
63916;BME280;50094;51.356;-0.196;2022-12-05T01:30:21;101126.43;;;23.32;41.63
63916;BME280;50094;51.356;-0.196;2022-12-05T01:32:48;101131.04;;;23.22;41.87
63916;BME280;50094;51.356;-0.196;2022-12-05T01:35:16;101126.01;;;23.61;41.43
63916;BME280;50094;51.356;-0.196;2022-12-05T01:37:43;101131.76;;;23.60;41.58
63916;BME280;50094;51.356;-0.196;2022-12-05T01:40:11;101133.49;;;23.35;41.61
63916;BME280;50094;51.356;-0.196;2022-12-05T01:42:38;101135.44;;;23.38;41.52
63916;BME280;50094;51.356;-0.196;2022-12-05T01:45:14;101138.63;;;23.32;41.57
63916;BME280;50094;51.356;-0.196;2022-12-05T01:47:42;101140.27;;;23.09;41.56
63916;BME280;50094;51.356;-0.196;2022-12-05T01:50:11;101142.47;;;23.33;41.55
63916;BME280;50094;51.356;-0.196;2022-12-05T01:52:39;101143.93;;;23.57;41.51
63916;BME280;50094;51.356;-0.196;2022-12-05T01:55:10;101144.90;;;23.09;41.38
63916;BME280;50094;51.356;-0.196;2022-12-05T01:57:40;101145.47;;;23.58;41.39
63916;BME280;50094;51.356;-0.196;2022-12-05T02:00:11;101148.25;;;23.11;41.28
63916;BME280;50094;51.356;-0.196;2022-12-05T02:02:42;101149.23;;;23.46;41.24
63916;BME280;50094;51.356;-0.196;2022-12-05T02:05:14;101152.85;;;23.26;41.20
63916;BME280;50094;51.356;-0.196;2022-12-05T02:07:44;101151.46;;;23.42;41.08
63916;BME280;50094;51.356;-0.196;2022-12-05T02:10:13;101157.93;;;23.50;41.11
63916;BME280;50094;51.356;-0.196;2022-12-05T02:12:41;101155.14;;;23.53;40.94
63916;BME280;50094;51.356;-0.196;2022-12-05T02:15:21;101154.86;;;23.44;41.01
63916;BME280;50094;51.356;-0.196;2022-12-05T02:18:02;101155.69;;;23.78;40.94
63916;BME280;50094;51.356;-0.196;2022-12-05T02:20:40;101155.27;;;23.46;41.07
63916;BME280;50094;51.356;-0.196;2022-12-05T02:23:56;101152.44;;;23.55;41.00
63916;BME280;50094;51.356;-0.196;2022-12-05T02:26:47;101154.92;;;23.50;41.02
63916;BME280;50094;51.356;-0.196;2022-12-05T02:29:55;101155.09;;;23.50;41.04
63916;BME280;50094;51.356;-0.196;2022-12-05T02:32:54;101151.90;;;23.57;40.78
63916;BME280;50094;51.356;-0.196;2022-12-05T02:35:37;101152.53;;;23.33;40.77
63916;BME280;50094;51.356;-0.196;2022-12-05T02:38:15;101152.32;;;23.31;40.68
63916;BME280;50094;51.356;-0.196;2022-12-05T02:40:50;101148.08;;;23.31;40.73
63916;BME280;50094;51.356;-0.196;2022-12-05T02:43:25;101151.30;;;23.74;40.86
63916;BME280;50094;51.356;-0.196;2022-12-05T02:45:58;101152.08;;;23.79;40.80
63916;BME280;50094;51.356;-0.196;2022-12-05T02:48:28;101150.07;;;23.52;40.80
63916;BME280;50094;51.356;-0.196;2022-12-05T02:50:57;101151.64;;;23.20;40.90
63916;BME280;50094;51.356;-0.196;2022-12-05T02:53:28;101154.22;;;23.52;40.82
63916;BME280;50094;51.356;-0.196;2022-12-05T02:55:56;101153.89;;;23.78;40.62
63916;BME280;50094;51.356;-0.196;2022-12-05T02:58:33;101151.47;;;23.24;40.77
63916;BME280;50094;51.356;-0.196;2022-12-05T03:01:03;101147.53;;;23.36;40.63
63916;BME280;50094;51.356;-0.196;2022-12-05T03:03:32;101148.21;;;23.62;40.53
63916;BME280;50094;51.356;-0.196;2022-12-05T03:06:03;101150.21;;;23.34;40.58
63916;BME280;50094;51.356;-0.196;2022-12-05T03:08:36;101148.03;;;23.63;40.51
63916;BME280;50094;51.356;-0.196;2022-12-05T03:11:06;101152.44;;;23.67;40.47
63916;BME280;50094;51.356;-0.196;2022-12-05T03:13:39;101153.36;;;23.59;40.60
63916;BME280;50094;51.356;-0.196;2022-12-05T03:16:10;101156.59;;;23.40;40.47
63916;BME280;50094;51.356;-0.196;2022-12-05T03:18:41;101158.65;;;23.53;40.24
63916;BME280;50094;51.356;-0.196;2022-12-05T03:21:19;101160.56;;;23.38;40.36
63916;BME280;50094;51.356;-0.196;2022-12-05T03:23:51;101160.47;;;23.93;40.23
63916;BME280;50094;51.356;-0.196;2022-12-05T03:26:31;101165.78;;;23.38;40.32
63916;BME280;50094;51.356;-0.196;2022-12-05T03:29:15;101162.18;;;23.19;40.27
63916;BME280;50094;51.356;-0.196;2022-12-05T03:31:53;101164.63;;;23.46;40.27
63916;BME280;50094;51.356;-0.196;2022-12-05T03:34:33;101170.64;;;23.74;40.23
63916;BME280;50094;51.356;-0.196;2022-12-05T03:37:06;101175.29;;;23.42;40.14
63916;BME280;50094;51.356;-0.196;2022-12-05T03:39:38;101176.02;;;23.67;40.07
63916;BME280;50094;51.356;-0.196;2022-12-05T03:42:12;101178.07;;;23.48;40.22
63916;BME280;50094;51.356;-0.196;2022-12-05T03:44:46;101179.32;;;23.47;40.17
63916;BME280;50094;51.356;-0.196;2022-12-05T03:47:20;101181.19;;;23.43;40.13
63916;BME280;50094;51.356;-0.196;2022-12-05T03:49:53;101177.43;;;23.52;40.13
63916;BME280;50094;51.356;-0.196;2022-12-05T03:52:26;101184.97;;;23.47;40.10
63916;BME280;50094;51.356;-0.196;2022-12-05T03:54:57;101181.42;;;23.42;40.11
63916;BME280;50094;51.356;-0.196;2022-12-05T03:57:28;101192.38;;;23.67;40.19
63916;BME280;50094;51.356;-0.196;2022-12-05T04:00:00;101185.40;;;23.90;40.06
63916;BME280;50094;51.356;-0.196;2022-12-05T04:02:31;101186.89;;;23.45;39.77
63916;BME280;50094;51.356;-0.196;2022-12-05T04:05:06;101189.98;;;23.48;39.85
63916;BME280;50094;51.356;-0.196;2022-12-05T04:07:38;101188.85;;;23.70;39.94
63916;BME280;50094;51.356;-0.196;2022-12-05T04:10:10;101190.45;;;23.52;39.80
63916;BME280;50094;51.356;-0.196;2022-12-05T04:12:41;101193.37;;;23.47;39.76
63916;BME280;50094;51.356;-0.196;2022-12-05T04:15:12;101192.98;;;23.74;39.93
63916;BME280;50094;51.356;-0.196;2022-12-05T04:17:45;101194.61;;;23.59;40.08
63916;BME280;50094;51.356;-0.196;2022-12-05T04:20:16;101194.42;;;23.70;39.78
63916;BME280;50094;51.356;-0.196;2022-12-05T04:22:44;101198.79;;;23.43;39.79
63916;BME280;50094;51.356;-0.196;2022-12-05T04:25:14;101196.11;;;23.68;39.86
63916;BME280;50094;51.356;-0.196;2022-12-05T04:27:49;101194.78;;;23.76;39.74
63916;BME280;50094;51.356;-0.196;2022-12-05T04:30:20;101194.70;;;23.53;39.70
63916;BME280;50094;51.356;-0.196;2022-12-05T04:32:53;101195.76;;;23.51;39.57
63916;BME280;50094;51.356;-0.196;2022-12-05T04:35:26;101193.09;;;23.83;39.75
63916;BME280;50094;51.356;-0.196;2022-12-05T04:38:01;101197.91;;;23.54;39.72
63916;BME280;50094;51.356;-0.196;2022-12-05T04:40:34;101196.66;;;23.61;39.58
63916;BME280;50094;51.356;-0.196;2022-12-05T04:43:05;101197.76;;;23.60;39.50
63916;BME280;50094;51.356;-0.196;2022-12-05T04:45:34;101199.36;;;23.60;39.63
63916;BME280;50094;51.356;-0.196;2022-12-05T04:48:06;101199.88;;;23.65;39.53
63916;BME280;50094;51.356;-0.196;2022-12-05T04:50:37;101196.99;;;23.54;39.55
63916;BME280;50094;51.356;-0.196;2022-12-05T04:53:08;101199.29;;;23.57;39.53
63916;BME280;50094;51.356;-0.196;2022-12-05T04:55:40;101203.38;;;23.61;39.58
63916;BME280;50094;51.356;-0.196;2022-12-05T04:58:11;101200.98;;;23.61;39.57
63916;BME280;50094;51.356;-0.196;2022-12-05T05:00:45;101204.20;;;23.67;39.39
63916;BME280;50094;51.356;-0.196;2022-12-05T05:03:20;101205.54;;;23.64;39.54
63916;BME280;50094;51.356;-0.196;2022-12-05T05:05:51;101208.80;;;23.56;39.62
63916;BME280;50094;51.356;-0.196;2022-12-05T05:08:22;101214.06;;;24.04;39.40
63916;BME280;50094;51.356;-0.196;2022-12-05T05:11:00;101214.97;;;23.52;39.35
63916;BME280;50094;51.356;-0.196;2022-12-05T05:13:30;101216.93;;;23.73;39.43
63916;BME280;50094;51.356;-0.196;2022-12-05T05:15:58;101219.49;;;23.64;39.49
63916;BME280;50094;51.356;-0.196;2022-12-05T05:18:25;101223.55;;;23.78;39.29
63916;BME280;50094;51.356;-0.196;2022-12-05T05:20:53;101225.97;;;23.96;39.43
63916;BME280;50094;51.356;-0.196;2022-12-05T05:23:21;101224.85;;;23.70;39.40
63916;BME280;50094;51.356;-0.196;2022-12-05T05:25:52;101224.68;;;23.71;39.39
63916;BME280;50094;51.356;-0.196;2022-12-05T05:28:20;101228.58;;;23.69;39.41
63916;BME280;50094;51.356;-0.196;2022-12-05T05:30:48;101233.91;;;23.77;39.41
63916;BME280;50094;51.356;-0.196;2022-12-05T05:33:15;101236.62;;;23.90;39.23
63916;BME280;50094;51.356;-0.196;2022-12-05T05:35:42;101235.77;;;23.84;39.20
63916;BME280;50094;51.356;-0.196;2022-12-05T05:38:09;101240.25;;;23.89;39.25
63916;BME280;50094;51.356;-0.196;2022-12-05T05:40:37;101239.01;;;24.14;39.27
63916;BME280;50094;51.356;-0.196;2022-12-05T05:43:04;101239.60;;;24.08;39.26
63916;BME280;50094;51.356;-0.196;2022-12-05T05:45:32;101241.05;;;24.21;39.40
63916;BME280;50094;51.356;-0.196;2022-12-05T05:47:59;101241.56;;;24.52;39.34
63916;BME280;50094;51.356;-0.196;2022-12-05T05:50:26;101242.63;;;24.36;39.12
63916;BME280;50094;51.356;-0.196;2022-12-05T05:52:55;101248.12;;;24.45;39.18
63916;BME280;50094;51.356;-0.196;2022-12-05T05:55:22;101249.04;;;24.22;39.07
63916;BME280;50094;51.356;-0.196;2022-12-05T05:57:50;101250.18;;;24.26;39.27
63916;BME280;50094;51.356;-0.196;2022-12-05T06:00:18;101250.86;;;24.58;39.13
63916;BME280;50094;51.356;-0.196;2022-12-05T06:02:45;101251.87;;;24.74;39.06
63916;BME280;50094;51.356;-0.196;2022-12-05T06:05:12;101255.16;;;24.57;39.18
63916;BME280;50094;51.356;-0.196;2022-12-05T06:07:40;101254.43;;;24.33;38.88
63916;BME280;50094;51.356;-0.196;2022-12-05T06:10:08;101261.92;;;24.61;38.84
63916;BME280;50094;51.356;-0.196;2022-12-05T06:12:36;101258.40;;;24.88;38.81
63916;BME280;50094;51.356;-0.196;2022-12-05T06:15:05;101258.84;;;24.71;38.67
63916;BME280;50094;51.356;-0.196;2022-12-05T06:17:32;101261.33;;;24.68;38.63
63916;BME280;50094;51.356;-0.196;2022-12-05T06:20:00;101262.02;;;24.61;38.69
63916;BME280;50094;51.356;-0.196;2022-12-05T06:22:29;101264.99;;;24.73;38.70
63916;BME280;50094;51.356;-0.196;2022-12-05T06:24:57;101262.04;;;24.35;38.84
63916;BME280;50094;51.356;-0.196;2022-12-05T06:27:24;101266.09;;;24.42;38.69
63916;BME280;50094;51.356;-0.196;2022-12-05T06:29:52;101272.85;;;24.48;38.93
63916;BME280;50094;51.356;-0.196;2022-12-05T06:32:19;101269.07;;;24.80;38.92
63916;BME280;50094;51.356;-0.196;2022-12-05T06:34:46;101273.71;;;24.57;38.70
63916;BME280;50094;51.356;-0.196;2022-12-05T06:37:14;101274.67;;;24.52;38.49
63916;BME280;50094;51.356;-0.196;2022-12-05T06:39:42;101276.69;;;24.53;38.55
63916;BME280;50094;51.356;-0.196;2022-12-05T06:42:09;101271.36;;;24.93;38.23
63916;BME280;50094;51.356;-0.196;2022-12-05T06:44:37;101269.20;;;24.45;37.78
63916;BME280;50094;51.356;-0.196;2022-12-05T06:47:04;101267.08;;;24.62;37.61
63916;BME280;50094;51.356;-0.196;2022-12-05T06:49:32;101264.86;;;24.29;37.43
63916;BME280;50094;51.356;-0.196;2022-12-05T06:51:59;101262.58;;;24.42;37.21
63916;BME280;50094;51.356;-0.196;2022-12-05T06:54:27;101263.30;;;24.29;37.08
63916;BME280;50094;51.356;-0.196;2022-12-05T06:56:54;101261.42;;;24.50;36.90
63916;BME280;50094;51.356;-0.196;2022-12-05T06:59:22;101265.63;;;24.20;36.78
63916;BME280;50094;51.356;-0.196;2022-12-05T07:01:50;101267.20;;;24.06;36.73
63916;BME280;50094;51.356;-0.196;2022-12-05T07:04:19;101270.00;;;24.07;36.79
63916;BME280;50094;51.356;-0.196;2022-12-05T07:06:47;101268.88;;;23.70;36.82
63916;BME280;50094;51.356;-0.196;2022-12-05T07:09:16;101274.86;;;24.13;36.86
63916;BME280;50094;51.356;-0.196;2022-12-05T07:11:46;101284.54;;;24.13;36.83
63916;BME280;50094;51.356;-0.196;2022-12-05T07:14:14;101289.12;;;23.48;36.98
63916;BME280;50094;51.356;-0.196;2022-12-05T07:16:42;101290.98;;;23.44;37.01
63916;BME280;50094;51.356;-0.196;2022-12-05T07:19:09;101289.94;;;23.65;36.98
63916;BME280;50094;51.356;-0.196;2022-12-05T07:21:37;101291.46;;;23.47;37.12
63916;BME280;50094;51.356;-0.196;2022-12-05T07:24:05;101295.24;;;23.67;37.15
63916;BME280;50094;51.356;-0.196;2022-12-05T07:26:32;101306.30;;;23.58;37.16
63916;BME280;50094;51.356;-0.196;2022-12-05T07:29:00;101307.21;;;23.59;37.11
63916;BME280;50094;51.356;-0.196;2022-12-05T07:31:28;101309.72;;;23.55;37.10
63916;BME280;50094;51.356;-0.196;2022-12-05T07:33:55;101313.85;;;23.13;37.23
63916;BME280;50094;51.356;-0.196;2022-12-05T07:36:22;101315.00;;;23.47;37.09
63916;BME280;50094;51.356;-0.196;2022-12-05T07:38:54;101320.48;;;23.39;37.00
63916;BME280;50094;51.356;-0.196;2022-12-05T07:41:23;101321.99;;;23.33;37.08
63916;BME280;50094;51.356;-0.196;2022-12-05T07:43:52;101325.70;;;23.33;37.00
63916;BME280;50094;51.356;-0.196;2022-12-05T07:46:20;101331.31;;;23.01;37.00
63916;BME280;50094;51.356;-0.196;2022-12-05T07:48:48;101333.76;;;23.29;37.00
63916;BME280;50094;51.356;-0.196;2022-12-05T07:51:17;101335.51;;;23.25;36.95
63916;BME280;50094;51.356;-0.196;2022-12-05T07:53:46;101333.61;;;23.15;36.96
63916;BME280;50094;51.356;-0.196;2022-12-05T07:56:15;101336.15;;;23.04;37.02
63916;BME280;50094;51.356;-0.196;2022-12-05T07:58:45;101334.42;;;22.99;37.01
63916;BME280;50094;51.356;-0.196;2022-12-05T08:01:15;101340.57;;;23.14;36.98
63916;BME280;50094;51.356;-0.196;2022-12-05T08:03:44;101344.57;;;23.11;37.09
63916;BME280;50094;51.356;-0.196;2022-12-05T08:06:14;101338.45;;;23.12;36.96
63916;BME280;50094;51.356;-0.196;2022-12-05T08:08:43;101342.62;;;22.97;37.00
63916;BME280;50094;51.356;-0.196;2022-12-05T08:11:12;101341.96;;;22.72;37.03
63916;BME280;50094;51.356;-0.196;2022-12-05T08:13:40;101347.35;;;22.91;37.00
63916;BME280;50094;51.356;-0.196;2022-12-05T08:16:11;101349.53;;;22.85;37.03
63916;BME280;50094;51.356;-0.196;2022-12-05T08:18:38;101350.08;;;22.95;36.81
63916;BME280;50094;51.356;-0.196;2022-12-05T08:21:08;101356.38;;;22.89;36.91
63916;BME280;50094;51.356;-0.196;2022-12-05T08:23:37;101363.48;;;22.79;36.94
63916;BME280;50094;51.356;-0.196;2022-12-05T08:26:08;101360.84;;;22.76;36.91
63916;BME280;50094;51.356;-0.196;2022-12-05T08:28:36;101358.09;;;22.53;37.01
63916;BME280;50094;51.356;-0.196;2022-12-05T08:31:04;101366.51;;;22.78;37.02
63916;BME280;50094;51.356;-0.196;2022-12-05T08:33:32;101363.91;;;22.73;37.03
63916;BME280;50094;51.356;-0.196;2022-12-05T08:36:00;101370.79;;;22.72;37.06
63916;BME280;50094;51.356;-0.196;2022-12-05T08:38:28;101371.68;;;22.76;36.91
63916;BME280;50094;51.356;-0.196;2022-12-05T08:40:56;101369.24;;;22.67;36.88
63916;BME280;50094;51.356;-0.196;2022-12-05T08:43:27;101370.87;;;22.64;36.94
63916;BME280;50094;51.356;-0.196;2022-12-05T08:45:54;101370.67;;;22.68;36.94
63916;BME280;50094;51.356;-0.196;2022-12-05T08:48:22;101369.03;;;22.61;36.99
63916;BME280;50094;51.356;-0.196;2022-12-05T08:50:49;101370.23;;;22.54;36.94
63916;BME280;50094;51.356;-0.196;2022-12-05T08:53:17;101370.27;;;22.58;36.96
63916;BME280;50094;51.356;-0.196;2022-12-05T08:55:45;101370.66;;;22.54;37.02
63916;BME280;50094;51.356;-0.196;2022-12-05T08:58:13;101370.06;;;22.42;37.05
63916;BME280;50094;51.356;-0.196;2022-12-05T09:00:41;101371.01;;;22.50;36.96
63916;BME280;50094;51.356;-0.196;2022-12-05T09:03:10;101374.63;;;22.50;36.92
63916;BME280;50094;51.356;-0.196;2022-12-05T09:05:38;101373.81;;;22.44;36.95
63916;BME280;50094;51.356;-0.196;2022-12-05T09:08:06;101373.49;;;22.50;36.90
63916;BME280;50094;51.356;-0.196;2022-12-05T09:10:33;101380.06;;;22.51;36.89
63916;BME280;50094;51.356;-0.196;2022-12-05T09:13:00;101377.90;;;22.51;36.78
63916;BME280;50094;51.356;-0.196;2022-12-05T09:15:28;101381.26;;;22.39;36.91
63916;BME280;50094;51.356;-0.196;2022-12-05T09:17:56;101381.20;;;22.55;36.91
63916;BME280;50094;51.356;-0.196;2022-12-05T09:20:23;101390.77;;;22.41;36.85
63916;BME280;50094;51.356;-0.196;2022-12-05T09:22:51;101393.68;;;22.70;36.75
63916;BME280;50094;51.356;-0.196;2022-12-05T09:25:19;101400.22;;;22.33;36.80
63916;BME280;50094;51.356;-0.196;2022-12-05T09:27:46;101405.77;;;22.29;36.80
63916;BME280;50094;51.356;-0.196;2022-12-05T09:30:15;101409.55;;;22.21;36.89
63916;BME280;50094;51.356;-0.196;2022-12-05T09:32:42;101407.73;;;22.13;36.95
63916;BME280;50094;51.356;-0.196;2022-12-05T09:35:10;101408.53;;;22.22;36.86
63916;BME280;50094;51.356;-0.196;2022-12-05T09:37:38;101411.67;;;22.30;36.72
63916;BME280;50094;51.356;-0.196;2022-12-05T09:40:09;101413.00;;;22.16;36.67
63916;BME280;50094;51.356;-0.196;2022-12-05T09:42:53;101414.48;;;22.38;36.61
63916;BME280;50094;51.356;-0.196;2022-12-05T09:45:25;101418.05;;;22.41;36.53
63916;BME280;50094;51.356;-0.196;2022-12-05T09:47:59;101420.16;;;22.48;36.38
63916;BME280;50094;51.356;-0.196;2022-12-05T09:50:28;101422.11;;;22.46;36.38
63916;BME280;50094;51.356;-0.196;2022-12-05T09:53:04;101421.62;;;22.66;36.41
63916;BME280;50094;51.356;-0.196;2022-12-05T09:55:40;101423.79;;;22.29;36.49
63916;BME280;50094;51.356;-0.196;2022-12-05T09:58:19;101423.80;;;22.34;36.45
63916;BME280;50094;51.356;-0.196;2022-12-05T10:00:48;101432.11;;;22.38;36.41
63916;BME280;50094;51.356;-0.196;2022-12-05T10:03:24;101436.24;;;22.43;36.23
63916;BME280;50094;51.356;-0.196;2022-12-05T10:06:01;101435.73;;;22.68;36.27
63916;BME280;50094;51.356;-0.196;2022-12-05T10:08:39;101436.60;;;22.37;36.22
63916;BME280;50094;51.356;-0.196;2022-12-05T10:11:15;101434.22;;;22.24;36.26
63916;BME280;50094;51.356;-0.196;2022-12-05T10:13:49;101438.46;;;22.18;36.29
63916;BME280;50094;51.356;-0.196;2022-12-05T10:16:24;101439.69;;;22.23;36.23
63916;BME280;50094;51.356;-0.196;2022-12-05T10:18:58;101441.42;;;22.19;36.20
63916;BME280;50094;51.356;-0.196;2022-12-05T10:21:31;101447.02;;;22.03;36.17
63916;BME280;50094;51.356;-0.196;2022-12-05T10:24:02;101440.93;;;22.21;36.18
63916;BME280;50094;51.356;-0.196;2022-12-05T10:26:43;101442.45;;;22.17;36.12
63916;BME280;50094;51.356;-0.196;2022-12-05T10:29:18;101442.18;;;22.10;36.21
63916;BME280;50094;51.356;-0.196;2022-12-05T10:31:51;101439.20;;;22.13;36.13
63916;BME280;50094;51.356;-0.196;2022-12-05T10:34:29;101438.74;;;22.09;36.13
63916;BME280;50094;51.356;-0.196;2022-12-05T10:37:07;101447.67;;;22.12;36.10
63916;BME280;50094;51.356;-0.196;2022-12-05T10:39:36;101441.20;;;22.12;36.00
63916;BME280;50094;51.356;-0.196;2022-12-05T10:42:04;101447.69;;;22.07;36.01
63916;BME280;50094;51.356;-0.196;2022-12-05T10:44:33;101444.89;;;22.09;35.98
63916;BME280;50094;51.356;-0.196;2022-12-05T10:47:01;101450.30;;;22.02;36.01
63916;BME280;50094;51.356;-0.196;2022-12-05T10:49:28;101447.49;;;21.96;35.92
63916;BME280;50094;51.356;-0.196;2022-12-05T10:51:57;101443.53;;;21.82;36.06
63916;BME280;50094;51.356;-0.196;2022-12-05T10:54:28;101447.89;;;21.83;36.03
63916;BME280;50094;51.356;-0.196;2022-12-05T10:56:56;101450.77;;;21.85;36.00
63916;BME280;50094;51.356;-0.196;2022-12-05T10:59:25;101453.63;;;22.14;36.02
63916;BME280;50094;51.356;-0.196;2022-12-05T11:02:17;101456.59;;;22.39;35.89
63916;BME280;50094;51.356;-0.196;2022-12-05T11:04:46;101452.39;;;22.43;35.83
63916;BME280;50094;51.356;-0.196;2022-12-05T11:07:24;101456.83;;;21.87;35.88
63916;BME280;50094;51.356;-0.196;2022-12-05T11:09:52;101450.09;;;21.78;35.90
63916;BME280;50094;51.356;-0.196;2022-12-05T11:12:22;101454.07;;;21.87;35.82
63916;BME280;50094;51.356;-0.196;2022-12-05T11:14:56;101451.20;;;22.13;35.81
63916;BME280;50094;51.356;-0.196;2022-12-05T11:17:26;101453.25;;;21.92;35.72
63916;BME280;50094;51.356;-0.196;2022-12-05T11:19:53;101454.04;;;22.36;35.73
63916;BME280;50094;51.356;-0.196;2022-12-05T11:22:30;101448.24;;;22.04;35.76
63916;BME280;50094;51.356;-0.196;2022-12-05T11:24:58;101444.61;;;21.73;35.81
63916;BME280;50094;51.356;-0.196;2022-12-05T11:27:28;101447.36;;;22.00;35.79
63916;BME280;50094;51.356;-0.196;2022-12-05T11:29:59;101452.51;;;22.32;35.62
63916;BME280;50094;51.356;-0.196;2022-12-05T11:32:29;101450.36;;;21.79;35.65
63916;BME280;50094;51.356;-0.196;2022-12-05T11:35:07;101451.47;;;22.02;35.61
63916;BME280;50094;51.356;-0.196;2022-12-05T11:37:39;101447.63;;;22.23;35.60
63916;BME280;50094;51.356;-0.196;2022-12-05T11:40:15;101446.61;;;21.74;35.60
63916;BME280;50094;51.356;-0.196;2022-12-05T11:43:01;101442.35;;;21.98;35.55
63916;BME280;50094;51.356;-0.196;2022-12-05T11:45:41;101444.63;;;22.03;35.50
63916;BME280;50094;51.356;-0.196;2022-12-05T11:48:26;101439.72;;;22.24;35.45
63916;BME280;50094;51.356;-0.196;2022-12-05T11:51:10;101441.31;;;21.96;35.45
63916;BME280;50094;51.356;-0.196;2022-12-05T11:53:54;101442.42;;;21.96;35.43
63916;BME280;50094;51.356;-0.196;2022-12-05T11:56:35;101441.49;;;22.10;35.52
63916;BME280;50094;51.356;-0.196;2022-12-05T11:59:22;101438.87;;;21.52;35.56
63916;BME280;50094;51.356;-0.196;2022-12-05T12:02:00;101437.75;;;22.03;35.49
63916;BME280;50094;51.356;-0.196;2022-12-05T12:04:42;101437.93;;;22.00;35.51
63916;BME280;50094;51.356;-0.196;2022-12-05T12:07:24;101433.42;;;21.97;35.50
63916;BME280;50094;51.356;-0.196;2022-12-05T12:10:03;101430.92;;;21.74;35.58
63916;BME280;50094;51.356;-0.196;2022-12-05T12:12:38;101428.24;;;21.47;35.57
63916;BME280;50094;51.356;-0.196;2022-12-05T12:15:25;101429.45;;;21.75;35.59
63916;BME280;50094;51.356;-0.196;2022-12-05T12:17:59;101425.60;;;21.53;35.46
63916;BME280;50094;51.356;-0.196;2022-12-05T12:20:40;101423.75;;;21.53;35.44
63916;BME280;50094;51.356;-0.196;2022-12-05T12:23:27;101421.13;;;21.72;35.52
63916;BME280;50094;51.356;-0.196;2022-12-05T12:26:05;101420.29;;;21.99;35.46
63916;BME280;50094;51.356;-0.196;2022-12-05T12:28:41;101420.80;;;21.74;35.46
63916;BME280;50094;51.356;-0.196;2022-12-05T12:31:22;101421.17;;;21.99;35.46
63916;BME280;50094;51.356;-0.196;2022-12-05T12:34:02;101427.94;;;22.07;35.35
63916;BME280;50094;51.356;-0.196;2022-12-05T12:36:35;101426.56;;;21.96;35.36
63916;BME280;50094;51.356;-0.196;2022-12-05T12:39:16;101428.60;;;21.54;35.32
63916;BME280;50094;51.356;-0.196;2022-12-05T12:41:58;101426.76;;;22.00;35.34
63916;BME280;50094;51.356;-0.196;2022-12-05T12:44:51;101424.44;;;21.78;35.30
63916;BME280;50094;51.356;-0.196;2022-12-05T12:47:27;101421.74;;;21.77;35.27
63916;BME280;50094;51.356;-0.196;2022-12-05T12:50:07;101422.17;;;21.74;35.24
63916;BME280;50094;51.356;-0.196;2022-12-05T12:53:02;101429.21;;;21.91;35.24
63916;BME280;50094;51.356;-0.196;2022-12-05T12:55:39;101421.21;;;21.75;35.40
63916;BME280;50094;51.356;-0.196;2022-12-05T12:58:16;101424.85;;;21.91;35.27
63916;BME280;50094;51.356;-0.196;2022-12-05T13:00:54;101424.35;;;21.89;35.26
63916;BME280;50094;51.356;-0.196;2022-12-05T13:03:25;101420.56;;;21.91;35.20